createdAt,value
2019-03-15T00:00:48.135Z,7.84
2019-03-15T00:03:19.411Z,7.84
2019-03-15T00:05:51.702Z,7.84
2019-03-15T00:08:22.922Z,7.82
2019-03-15T00:10:55.235Z,7.82
2019-03-15T00:13:26.455Z,7.81
2019-03-15T00:15:57.717Z,7.80
2019-03-15T00:18:28.936Z,7.78
2019-03-15T00:21:00.580Z,7.80
2019-03-15T00:23:31.805Z,7.77
2019-03-15T00:26:03.043Z,7.76
2019-03-15T00:28:34.245Z,7.76
2019-03-15T00:31:05.553Z,7.73
2019-03-15T00:33:36.849Z,7.74
2019-03-15T00:36:08.129Z,7.73
2019-03-15T00:38:39.406Z,7.72
2019-03-15T00:41:11.094Z,7.71
2019-03-15T00:43:42.500Z,7.70
2019-03-15T00:46:13.687Z,7.70
2019-03-15T00:48:44.906Z,7.70
2019-03-15T00:51:16.159Z,7.67
2019-03-15T00:53:47.369Z,7.65
2019-03-15T00:56:18.625Z,7.65
2019-03-15T00:58:49.797Z,7.64
2019-03-15T01:01:21.015Z,7.63
2019-03-15T01:03:53.250Z,7.63
2019-03-15T01:06:24.472Z,7.61
2019-03-15T01:08:55.683Z,7.62
2019-03-15T01:11:26.832Z,7.62
2019-03-15T01:13:58.093Z,7.63
2019-03-15T01:16:29.297Z,7.64
2019-03-15T01:19:00.571Z,7.64
2019-03-15T01:21:31.787Z,7.64
2019-03-15T01:24:03.118Z,7.64
2019-03-15T01:26:34.395Z,7.64
2019-03-15T01:29:05.641Z,7.64
2019-03-15T01:31:37.901Z,7.66
2019-03-15T01:34:09.092Z,7.66
2019-03-15T01:36:40.307Z,7.67
2019-03-15T01:39:11.669Z,7.67
2019-03-15T01:41:42.855Z,7.66
2019-03-15T01:44:14.017Z,7.68
2019-03-15T01:46:45.367Z,7.70
2019-03-15T01:49:16.595Z,7.72
2019-03-15T01:51:47.847Z,7.72
2019-03-15T01:54:19.087Z,7.74
2019-03-15T01:56:50.230Z,7.78
2019-03-15T01:59:21.472Z,7.78
2019-03-15T02:01:52.712Z,7.80
2019-03-15T02:04:24.004Z,7.81
2019-03-15T02:06:55.226Z,7.82
2019-03-15T02:09:26.621Z,7.82
2019-03-15T02:11:57.878Z,7.81
2019-03-15T02:14:29.078Z,7.80
2019-03-15T02:17:00.660Z,7.79
2019-03-15T02:19:31.849Z,7.78
2019-03-15T02:22:03.037Z,7.77
2019-03-15T02:24:34.323Z,7.77
2019-03-15T02:27:05.518Z,7.75
2019-03-15T02:29:36.678Z,7.73
2019-03-15T02:32:07.891Z,7.73
2019-03-15T02:34:39.206Z,7.71
2019-03-15T02:37:10.406Z,7.71
2019-03-15T02:39:41.618Z,7.68
2019-03-15T02:42:12.845Z,7.69
2019-03-15T02:44:44.018Z,7.70
2019-03-15T02:47:15.260Z,7.71
2019-03-15T02:49:46.456Z,7.71
2019-03-15T02:52:17.686Z,7.69
2019-03-15T02:54:50.005Z,7.67
2019-03-15T02:57:21.342Z,7.67
2019-03-15T02:59:52.526Z,7.66
2019-03-15T03:02:23.747Z,7.66
2019-03-15T03:04:55.018Z,7.66
2019-03-15T03:07:26.252Z,7.65
2019-03-15T03:09:57.458Z,7.64
2019-03-15T03:12:28.683Z,7.63
2019-03-15T03:14:59.974Z,7.64
2019-03-15T03:17:32.224Z,7.61
2019-03-15T03:20:03.483Z,7.60
2019-03-15T03:22:36.403Z,7.61
2019-03-15T03:25:08.323Z,7.61
2019-03-15T03:27:39.545Z,7.61
2019-03-15T03:30:10.784Z,7.61
2019-03-15T03:32:44.216Z,7.60
2019-03-15T03:35:15.126Z,7.61
2019-03-15T03:37:46.311Z,7.61
2019-03-15T03:40:20.074Z,7.61
2019-03-15T03:42:50.659Z,7.60
2019-03-15T03:45:23.404Z,7.59
2019-03-15T03:47:54.818Z,7.61
2019-03-15T03:50:26.083Z,7.61
2019-03-15T03:52:57.337Z,7.62
2019-03-15T03:55:28.541Z,7.63
2019-03-15T03:57:59.751Z,7.63
2019-03-15T04:00:31.046Z,7.63
2019-03-15T04:03:02.272Z,7.65
2019-03-15T04:05:33.503Z,7.64
2019-03-15T04:08:04.702Z,7.65
2019-03-15T04:10:35.983Z,7.65
2019-03-15T04:13:07.303Z,7.65
2019-03-15T04:15:38.657Z,7.67
2019-03-15T04:18:09.934Z,7.66
2019-03-15T04:20:41.216Z,7.67
2019-03-15T04:23:12.449Z,7.69
2019-03-15T04:25:43.706Z,7.69
2019-03-15T04:28:15.027Z,7.73
2019-03-15T04:30:46.330Z,7.75
2019-03-15T04:33:18.632Z,7.75
2019-03-15T04:35:49.861Z,7.76
2019-03-15T04:38:21.062Z,7.75
2019-03-15T04:40:52.274Z,7.74
2019-03-15T04:43:23.493Z,7.74
2019-03-15T04:45:54.761Z,7.73
2019-03-15T04:48:26.003Z,7.75
2019-03-15T04:50:57.294Z,7.72
2019-03-15T04:53:28.730Z,7.71
2019-03-15T04:55:59.956Z,7.69
2019-03-15T04:58:31.231Z,7.69
2019-03-15T05:01:02.460Z,7.70
2019-03-15T05:03:33.715Z,7.70
2019-03-15T05:06:05.035Z,7.71
2019-03-15T05:08:36.226Z,7.71
2019-03-15T05:11:07.592Z,7.71
2019-03-15T05:13:38.884Z,7.71
2019-03-15T05:16:10.172Z,7.70
2019-03-15T05:18:41.508Z,7.71
2019-03-15T05:21:13.677Z,7.72
2019-03-15T05:23:44.871Z,7.72
2019-03-15T05:26:16.097Z,7.72
2019-03-15T05:28:47.412Z,7.72
2019-03-15T05:31:18.692Z,7.70
2019-03-15T05:33:50.108Z,7.71
2019-03-15T05:36:21.378Z,7.71
2019-03-15T05:38:52.632Z,7.72
2019-03-15T05:41:23.937Z,7.73
2019-03-15T05:43:55.267Z,7.73
2019-03-15T05:46:26.546Z,7.71
2019-03-15T05:48:57.780Z,7.72
2019-03-15T05:51:30.127Z,7.70
2019-03-15T05:54:01.430Z,7.71
2019-03-15T05:56:33.716Z,7.67
2019-03-15T05:59:04.956Z,7.66
2019-03-15T06:01:36.187Z,7.65
2019-03-15T06:04:07.418Z,7.66
2019-03-15T06:06:38.640Z,7.65
2019-03-15T06:09:09.938Z,7.65
2019-03-15T06:11:41.361Z,7.63
2019-03-15T06:14:12.617Z,7.60
2019-03-15T06:16:43.840Z,7.60
2019-03-15T06:19:15.079Z,7.59
2019-03-15T06:21:46.290Z,7.60
2019-03-15T06:24:17.630Z,7.60
2019-03-15T06:26:48.922Z,7.61
2019-03-15T06:29:20.139Z,7.61
2019-03-15T06:31:52.217Z,7.63
2019-03-15T06:34:23.526Z,7.62
2019-03-15T06:36:54.719Z,7.63
2019-03-15T06:39:25.997Z,7.63
2019-03-15T06:41:57.182Z,7.64
2019-03-15T06:44:28.383Z,7.63
2019-03-15T06:46:59.557Z,7.64
2019-03-15T06:49:30.867Z,7.67
2019-03-15T06:52:02.109Z,7.67
2019-03-15T06:54:33.449Z,7.69
2019-03-15T06:57:04.769Z,7.70
2019-03-15T06:59:37.245Z,7.71
2019-03-15T07:02:08.596Z,7.71
2019-03-15T07:04:39.908Z,7.73
2019-03-15T07:07:11.177Z,7.76
2019-03-15T07:09:42.452Z,7.80
2019-03-15T07:12:13.825Z,7.82
2019-03-15T07:14:45.025Z,7.86
2019-03-15T07:17:16.326Z,7.88
2019-03-15T07:19:47.629Z,7.92
2019-03-15T07:22:20.072Z,7.96
2019-03-15T07:24:52.664Z,8.00
2019-03-15T07:27:23.956Z,8.04
2019-03-15T07:29:55.204Z,8.08
2019-03-15T07:32:26.455Z,8.13
2019-03-15T07:34:57.719Z,8.17
2019-03-15T07:37:29.037Z,8.20
2019-03-15T07:40:00.380Z,8.27
2019-03-15T07:42:31.666Z,8.32
2019-03-15T07:45:02.962Z,8.36
2019-03-15T07:47:34.339Z,8.39
2019-03-15T07:50:06.652Z,8.42
2019-03-15T07:52:38.083Z,8.41
2019-03-15T07:55:09.437Z,8.39
2019-03-15T07:57:40.644Z,8.42
2019-03-15T08:00:12.037Z,8.45
2019-03-15T08:02:43.315Z,8.46
2019-03-15T08:05:14.713Z,8.46
2019-03-15T08:07:46.009Z,8.46
2019-03-15T08:10:17.282Z,8.45
2019-03-15T08:12:49.744Z,8.46
2019-03-15T08:15:21.386Z,8.50
2019-03-15T08:17:52.713Z,8.55
2019-03-15T08:20:27.754Z,8.59
2019-03-15T08:23:00.563Z,8.64
2019-03-15T08:25:32.033Z,8.67
2019-03-15T08:28:03.390Z,8.70
2019-03-15T08:30:34.788Z,8.70
2019-03-15T08:33:10.479Z,8.71
2019-03-15T08:35:40.321Z,8.73
2019-03-15T08:38:11.652Z,8.77
2019-03-15T08:40:42.909Z,8.80
2019-03-15T08:43:15.128Z,8.83
2019-03-15T08:45:46.392Z,8.83
2019-03-15T08:48:17.709Z,8.85
2019-03-15T08:50:50.021Z,8.87
2019-03-15T08:53:21.322Z,8.91
2019-03-15T08:55:52.590Z,8.90
2019-03-15T08:58:23.994Z,8.91
2019-03-15T09:00:55.217Z,8.93
2019-03-15T09:03:28.516Z,8.97
2019-03-15T09:05:59.969Z,9.01
2019-03-15T09:08:31.210Z,9.06
2019-03-15T09:11:02.840Z,9.11
2019-03-15T09:13:34.623Z,9.14
2019-03-15T09:16:05.885Z,9.17
2019-03-15T09:18:37.179Z,9.18
2019-03-15T09:21:08.777Z,9.20
2019-03-15T09:23:40.188Z,9.22
2019-03-15T09:26:11.499Z,9.27
2019-03-15T09:28:43.066Z,9.31
2019-03-15T09:31:14.402Z,9.36
2019-03-15T09:33:45.596Z,9.41
2019-03-15T09:36:16.895Z,9.45
2019-03-15T09:38:48.324Z,9.48
2019-03-15T09:41:30.965Z,9.50
2019-03-15T09:43:53.418Z,9.53
2019-03-15T09:46:24.734Z,9.51
2019-03-15T09:48:56.047Z,9.52
2019-03-15T09:51:27.310Z,9.52
2019-03-15T09:53:58.531Z,9.52
2019-03-15T09:56:29.771Z,9.55
2019-03-15T09:59:01.022Z,9.56
2019-03-15T10:01:35.090Z,9.58
2019-03-15T10:04:05.313Z,9.63
2019-03-15T10:06:36.551Z,9.69
2019-03-15T10:09:08.259Z,9.74
2019-03-15T10:11:39.732Z,9.75
2019-03-15T10:14:11.244Z,9.73
2019-03-15T10:16:42.642Z,9.75
2019-03-15T10:19:13.899Z,9.76
2019-03-15T10:21:45.293Z,9.77
2019-03-15T10:24:16.771Z,9.77
2019-03-15T10:26:48.209Z,9.78
2019-03-15T10:29:19.850Z,9.79
2019-03-15T10:31:51.265Z,9.77
2019-03-15T10:34:22.530Z,9.72
2019-03-15T10:36:53.848Z,9.68
2019-03-15T10:39:25.215Z,9.66
2019-03-15T10:41:56.462Z,9.62
2019-03-15T10:44:27.779Z,9.62
2019-03-15T10:46:59.099Z,9.62
2019-03-15T10:49:31.005Z,9.64
2019-03-15T10:52:02.361Z,9.65
2019-03-15T10:54:34.714Z,9.66
2019-03-15T10:57:05.937Z,9.67
2019-03-15T10:59:37.238Z,9.69
2019-03-15T11:02:08.799Z,9.72
2019-03-15T11:04:39.994Z,9.73
2019-03-15T11:07:11.383Z,9.72
2019-03-15T11:09:42.786Z,9.73
2019-03-15T11:12:14.224Z,9.73
2019-03-15T11:14:45.756Z,9.71
2019-03-15T11:17:16.989Z,9.69
2019-03-15T11:19:48.273Z,9.67
2019-03-15T11:22:19.636Z,9.63
2019-03-15T11:24:50.953Z,9.60
2019-03-15T11:27:22.317Z,9.58
2019-03-15T11:29:53.575Z,9.56
2019-03-15T11:32:24.890Z,9.54
2019-03-15T11:34:56.220Z,9.51
2019-03-15T11:37:27.535Z,9.48
2019-03-15T11:39:58.815Z,9.47
2019-03-15T11:42:30.142Z,9.45
2019-03-15T11:45:01.361Z,9.45
2019-03-15T11:47:50.219Z,9.46
2019-03-15T11:50:06.699Z,9.49
2019-03-15T11:52:38.024Z,9.53
2019-03-15T11:55:09.437Z,9.57
2019-03-15T11:57:41.756Z,9.58
2019-03-15T12:00:13.114Z,9.63
2019-03-15T12:02:44.565Z,9.65
2019-03-15T12:05:16.002Z,9.68
2019-03-15T12:07:47.268Z,9.69
2019-03-15T12:10:18.652Z,9.71
2019-03-15T12:12:49.910Z,9.74
2019-03-15T12:15:21.217Z,9.76
2019-03-15T12:17:52.447Z,9.78
2019-03-15T12:20:23.768Z,9.78
2019-03-15T12:22:55.009Z,9.79
2019-03-15T12:25:26.223Z,9.79
2019-03-15T12:27:57.549Z,9.81
2019-03-15T12:30:28.833Z,9.84
2019-03-15T12:33:00.136Z,9.87
2019-03-15T12:35:31.408Z,9.88
2019-03-15T12:38:02.645Z,9.90
2019-03-15T12:40:33.959Z,9.91
2019-03-15T12:43:05.365Z,9.93
2019-03-15T12:45:36.682Z,9.91
2019-03-15T12:48:08.120Z,9.89
2019-03-15T12:50:39.340Z,9.88
2019-03-15T12:53:10.674Z,9.86
2019-03-15T12:55:41.879Z,9.85
2019-03-15T12:58:13.162Z,9.85
2019-03-15T13:00:44.448Z,9.84
2019-03-15T13:03:15.660Z,9.86
2019-03-15T13:05:46.929Z,9.84
2019-03-15T13:08:18.277Z,9.84
2019-03-15T13:10:49.484Z,9.84
2019-03-15T13:13:20.723Z,9.83
2019-03-15T13:15:52.016Z,9.82
2019-03-15T13:18:23.238Z,9.78
2019-03-15T13:20:54.493Z,9.77
2019-03-15T13:23:25.806Z,9.74
2019-03-15T13:25:57.143Z,9.73
2019-03-15T13:28:28.375Z,9.71
2019-03-15T13:30:59.653Z,9.71
2019-03-15T13:33:30.880Z,9.71
2019-03-15T13:36:02.336Z,9.69
2019-03-15T13:38:33.616Z,9.70
2019-03-15T13:41:04.851Z,9.68
2019-03-15T13:43:36.079Z,9.68
2019-03-15T13:46:07.408Z,9.65
2019-03-15T13:48:38.656Z,9.62
2019-03-15T13:51:10.022Z,9.62
2019-03-15T13:53:41.398Z,9.61
2019-03-15T13:56:12.644Z,9.61
2019-03-15T13:58:52.584Z,9.64
2019-03-15T14:01:17.166Z,9.68
2019-03-15T14:03:48.450Z,9.74
2019-03-15T14:06:19.837Z,9.81
2019-03-15T14:08:51.133Z,9.86
2019-03-15T14:11:22.422Z,9.93
2019-03-15T14:13:54.818Z,10.02
2019-03-15T14:16:27.953Z,10.11
2019-03-15T14:18:59.249Z,10.23
2019-03-15T14:21:30.491Z,10.35
2019-03-15T14:24:01.798Z,10.50
2019-03-15T14:26:32.993Z,10.67
2019-03-15T14:29:04.299Z,10.84
2019-03-15T14:31:35.638Z,11.02
2019-03-15T14:34:06.943Z,11.18
2019-03-15T14:36:38.256Z,11.34
2019-03-15T14:39:09.853Z,11.48
2019-03-15T14:41:41.201Z,11.66
2019-03-15T14:44:13.653Z,11.81
2019-03-15T14:46:44.892Z,11.90
2019-03-15T14:49:16.181Z,11.98
2019-03-15T14:51:47.462Z,12.06
2019-03-15T14:54:18.755Z,12.09
2019-03-15T14:56:50.220Z,12.12
2019-03-15T14:59:21.475Z,12.18
2019-03-15T15:01:52.755Z,12.20
2019-03-15T15:04:24.200Z,12.24
2019-03-15T15:06:55.590Z,12.27
2019-03-15T15:09:26.863Z,12.32
2019-03-15T15:11:58.270Z,12.38
2019-03-15T15:14:29.780Z,12.47
2019-03-15T15:17:01.276Z,12.53
2019-03-15T15:19:33.876Z,12.57
2019-03-15T15:22:05.296Z,12.58
2019-03-15T15:24:36.619Z,12.59
2019-03-15T15:27:07.912Z,12.56
2019-03-15T15:29:39.261Z,12.56
2019-03-15T15:32:10.643Z,12.57
2019-03-15T15:34:41.957Z,12.57
2019-03-15T15:37:13.237Z,12.57
2019-03-15T15:39:45.529Z,12.58
2019-03-15T15:42:16.805Z,12.59
2019-03-15T15:44:48.161Z,12.62
2019-03-15T15:47:19.481Z,12.64
2019-03-15T15:49:50.847Z,12.67
2019-03-15T15:52:22.154Z,12.71
2019-03-15T15:54:53.442Z,12.74
2019-03-15T15:57:24.671Z,12.78
2019-03-15T15:59:56.112Z,12.83
2019-03-15T16:02:27.549Z,12.83
2019-03-15T16:04:58.811Z,12.84
2019-03-15T16:07:30.163Z,12.85
2019-03-15T16:10:01.667Z,12.87
2019-03-15T16:12:32.982Z,12.90
2019-03-15T16:15:04.370Z,12.90
2019-03-15T16:17:36.014Z,12.91
2019-03-15T16:20:08.144Z,12.91
2019-03-15T16:22:39.326Z,12.91
2019-03-15T16:25:10.726Z,12.90
2019-03-15T16:27:41.939Z,12.88
2019-03-15T16:30:14.109Z,12.88
2019-03-15T16:32:45.564Z,12.85
2019-03-15T16:35:16.870Z,12.82
2019-03-15T16:37:48.377Z,12.82
2019-03-15T16:40:20.374Z,12.80
2019-03-15T16:42:51.810Z,12.78
2019-03-15T16:45:23.505Z,12.74
2019-03-15T16:47:54.794Z,12.72
2019-03-15T16:50:26.199Z,12.69
2019-03-15T16:52:57.475Z,12.66
2019-03-15T16:55:28.897Z,12.65
2019-03-15T16:58:00.168Z,12.61
2019-03-15T17:00:31.615Z,12.59
2019-03-15T17:03:03.007Z,12.56
2019-03-15T17:05:34.372Z,12.54
2019-03-15T17:08:05.647Z,12.49
2019-03-15T17:10:36.876Z,12.45
2019-03-15T17:13:08.184Z,12.41
2019-03-15T17:15:39.471Z,12.35
2019-03-15T17:18:10.736Z,12.26
2019-03-15T17:20:42.025Z,12.18
2019-03-15T17:23:13.339Z,12.12
2019-03-15T17:25:44.619Z,12.04
2019-03-15T17:28:15.919Z,11.96
2019-03-15T17:30:47.215Z,11.89
2019-03-15T17:33:18.528Z,11.83
2019-03-15T17:35:49.883Z,11.77
2019-03-15T17:38:21.198Z,11.70
2019-03-15T17:40:52.476Z,11.64
2019-03-15T17:43:24.023Z,11.59
2019-03-15T17:45:55.474Z,11.56
2019-03-15T17:48:27.068Z,11.49
2019-03-15T17:50:58.471Z,11.45
2019-03-15T17:53:29.755Z,11.41
2019-03-15T17:56:01.082Z,11.38
2019-03-15T17:58:32.440Z,11.36
2019-03-15T18:01:04.231Z,11.35
2019-03-15T18:03:35.520Z,11.34
2019-03-15T18:06:06.874Z,11.33
2019-03-15T18:08:38.326Z,11.32
2019-03-15T18:11:09.871Z,11.32
2019-03-15T18:13:41.338Z,11.34
2019-03-15T18:16:12.729Z,11.35
2019-03-15T18:18:49.090Z,11.36
2019-03-15T18:21:26.023Z,11.38
2019-03-15T18:24:01.440Z,11.38
2019-03-15T18:26:34.407Z,11.39
2019-03-15T18:29:05.866Z,11.38
2019-03-15T18:31:38.507Z,11.39
2019-03-15T18:34:09.865Z,11.37
2019-03-15T18:36:43.035Z,11.34
2019-03-15T18:39:14.717Z,11.31
2019-03-15T18:41:46.537Z,11.27
2019-03-15T18:44:18.012Z,11.23
2019-03-15T18:46:49.371Z,11.20
2019-03-15T18:49:20.750Z,11.16
2019-03-15T18:51:52.277Z,11.15
2019-03-15T18:54:23.537Z,11.14
2019-03-15T18:56:54.904Z,11.12
2019-03-15T18:59:39.031Z,11.11
2019-03-15T19:01:59.182Z,11.11
2019-03-15T19:04:30.524Z,11.10
2019-03-15T19:07:01.996Z,11.08
2019-03-15T19:09:33.397Z,11.07
2019-03-15T19:12:05.055Z,11.04
2019-03-15T19:14:36.450Z,11.02
2019-03-15T19:17:07.882Z,11.00
2019-03-15T19:19:39.289Z,10.99
2019-03-15T19:22:10.986Z,10.98
2019-03-15T19:24:42.197Z,10.96
2019-03-15T19:27:13.624Z,10.91
2019-03-15T19:29:53.507Z,10.88
2019-03-15T19:32:19.090Z,10.83
2019-03-15T19:34:52.992Z,10.79
2019-03-15T19:37:23.418Z,10.74
2019-03-15T19:39:54.705Z,10.70
2019-03-15T19:42:26.045Z,10.65
2019-03-15T19:44:58.653Z,10.59
2019-03-15T19:47:30.204Z,10.55
2019-03-15T19:50:01.556Z,10.52
2019-03-15T19:52:34.051Z,10.47
2019-03-15T19:55:07.026Z,10.44
2019-03-15T19:57:39.096Z,10.40
2019-03-15T20:00:13.648Z,10.35
2019-03-15T20:02:45.573Z,10.30
2019-03-15T20:05:16.991Z,10.29
2019-03-15T20:07:48.598Z,10.25
2019-03-15T20:10:20.370Z,10.22
2019-03-15T20:12:52.624Z,10.17
2019-03-15T20:15:23.865Z,10.12
2019-03-15T20:17:55.242Z,10.08
2019-03-15T20:20:26.653Z,10.05
2019-03-15T20:22:58.104Z,10.02
2019-03-15T20:25:29.444Z,9.99
2019-03-15T20:28:03.911Z,9.96
2019-03-15T20:30:33.762Z,9.93
2019-03-15T20:33:05.182Z,9.90
2019-03-15T20:35:36.537Z,9.87
2019-03-15T20:38:08.375Z,9.84
2019-03-15T20:40:39.683Z,9.82
2019-03-15T20:43:10.967Z,9.80
2019-03-15T20:45:42.186Z,9.77
2019-03-15T20:48:13.499Z,9.76
2019-03-15T20:50:46.945Z,9.75
2019-03-15T20:53:17.855Z,9.73
2019-03-15T20:55:49.205Z,9.71
2019-03-15T20:58:22.312Z,9.68
2019-03-15T21:00:53.632Z,9.67
2019-03-15T21:03:24.915Z,9.65
2019-03-15T21:05:56.267Z,9.65
2019-03-15T21:08:27.641Z,9.63
2019-03-15T21:10:58.992Z,9.62
2019-03-15T21:13:33.626Z,9.59
2019-03-15T21:16:03.580Z,9.59
2019-03-15T21:18:34.848Z,9.58
2019-03-15T21:21:06.194Z,9.56
2019-03-15T21:23:37.598Z,9.55
2019-03-15T21:26:08.868Z,9.52
2019-03-15T21:28:40.158Z,9.50
2019-03-15T21:31:11.365Z,9.48
2019-03-15T21:33:42.854Z,9.47
2019-03-15T21:36:14.254Z,9.45
2019-03-15T21:38:48.373Z,9.42
2019-03-15T21:41:20.016Z,9.39
2019-03-15T21:43:51.319Z,9.38
2019-03-15T21:46:22.712Z,9.34
2019-03-15T21:48:54.226Z,9.31
2019-03-15T21:51:25.623Z,9.29
2019-03-15T21:53:57.037Z,9.26
2019-03-15T21:56:28.286Z,9.24
2019-03-15T21:58:59.871Z,9.23
2019-03-15T22:01:31.177Z,9.22
2019-03-15T22:04:02.435Z,9.17
2019-03-15T22:06:33.686Z,9.15
2019-03-15T22:09:06.436Z,9.14
2019-03-15T22:11:37.692Z,9.10
2019-03-15T22:14:09.018Z,9.09
2019-03-15T22:16:40.285Z,9.05
2019-03-15T22:19:11.682Z,9.04
2019-03-15T22:21:42.952Z,9.01
2019-03-15T22:24:14.336Z,8.98
2019-03-15T22:26:45.630Z,8.94
2019-03-15T22:29:16.874Z,8.93
2019-03-15T22:31:48.247Z,8.91
2019-03-15T22:34:19.562Z,8.89
2019-03-15T22:36:50.965Z,8.87
2019-03-15T22:39:22.213Z,8.86
2019-03-15T22:41:53.657Z,8.84
2019-03-15T22:44:24.986Z,8.81
2019-03-15T22:46:56.321Z,8.81
2019-03-15T22:49:27.573Z,8.78
2019-03-15T22:51:58.807Z,8.78
2019-03-15T22:54:30.305Z,8.74
2019-03-15T22:57:01.710Z,8.73
2019-03-15T22:59:32.972Z,8.71
2019-03-15T23:02:04.766Z,8.68
2019-03-15T23:04:36.036Z,8.65
2019-03-15T23:07:09.482Z,8.64
2019-03-15T23:09:41.005Z,8.63
2019-03-15T23:12:12.341Z,8.61
2019-03-15T23:14:43.683Z,8.56
2019-03-15T23:17:14.983Z,8.53
2019-03-15T23:19:46.345Z,8.51
2019-03-15T23:22:17.933Z,8.50
2019-03-15T23:24:49.763Z,8.48
2019-03-15T23:27:21.151Z,8.47
2019-03-15T23:29:52.442Z,8.48
2019-03-15T23:32:24.282Z,8.46
2019-03-15T23:34:55.601Z,8.46
2019-03-15T23:37:26.794Z,8.46
2019-03-15T23:39:58.128Z,8.46
2019-03-15T23:42:29.396Z,8.45
2019-03-15T23:45:00.641Z,8.45
2019-03-15T23:47:31.960Z,8.44
2019-03-15T23:50:03.204Z,8.44
2019-03-15T23:52:34.435Z,8.44
2019-03-15T23:55:06.004Z,8.44
2019-03-15T23:57:37.282Z,8.44
